Terminal Aerodrome Forecast
Issued by NWS Sterling, VA

Current Version | Previous Version | Text Only | Print | Product List | Glossary Off
Versions: 1 2 3 4 5 6 7 8 9 10 11 12 13 14

000
FTUS41 KLWX 171700
TAFMRB
TAF
KMRB 171735Z 1718/1818 30014G23KT P6SM BKN050
     FM172200 29012G20KT P6SM SCT050
     FM180300 29010KT P6SM SCT250=

USA.gov is the U.S. government's official web portal to all federal, state and local government web resources and services.